createdAt,value
2024-03-05T00:02:42.019Z,6.3
2024-03-05T00:07:47.939Z,7
2024-03-05T00:12:54.098Z,6
2024-03-05T00:17:59.302Z,6.3
2024-03-05T00:23:05.315Z,6.3
2024-03-05T00:28:11.517Z,6
2024-03-05T00:43:29.829Z,7
2024-03-05T00:48:35.885Z,6.3
2024-03-05T00:53:42.007Z,7
2024-03-05T00:58:48.146Z,6.3
2024-03-05T01:03:54.426Z,6.3
2024-03-05T01:09:00.348Z,6.3
2024-03-05T01:14:06.484Z,6.3
2024-03-05T01:19:12.667Z,6
2024-03-05T01:24:17.728Z,6
2024-03-05T01:29:23.845Z,6
2024-03-05T01:34:29.983Z,6.3
2024-03-05T01:39:36.112Z,6.7
2024-03-05T01:44:42.238Z,6
2024-03-05T01:49:48.390Z,6.7
2024-03-05T01:54:54.526Z,6.3
2024-03-05T02:00:00.574Z,6.3
2024-03-05T02:05:06.676Z,6.3
2024-03-05T02:10:12.798Z,6.7
2024-03-05T02:15:18.960Z,6
2024-03-05T02:20:25.038Z,7
2024-03-05T02:25:31.180Z,7
2024-03-05T02:30:36.275Z,7
2024-03-05T02:35:42.389Z,6
2024-03-05T02:40:48.515Z,7
2024-03-05T02:45:54.637Z,6
2024-03-05T02:51:00.749Z,6
2024-03-05T03:01:13.001Z,6.3
2024-03-05T03:06:19.120Z,6.7
2024-03-05T03:11:25.233Z,6.7
2024-03-05T03:16:31.335Z,7
2024-03-05T03:21:37.466Z,6.7
2024-03-05T03:26:43.569Z,6.3
2024-03-05T03:31:49.706Z,6.3
2024-03-05T03:36:54.822Z,6.7
2024-03-05T03:42:00.969Z,6
2024-03-05T03:47:07.132Z,5.7
2024-03-05T03:52:13.218Z,6.3
2024-03-05T03:57:19.294Z,6.3
2024-03-05T04:02:25.424Z,6.3
2024-03-05T04:07:30.580Z,6
2024-03-05T04:12:36.686Z,7
2024-03-05T04:17:42.788Z,6.7
2024-03-05T04:22:48.919Z,6
2024-03-05T04:27:55.105Z,6
2024-03-05T04:33:01.200Z,6.7
2024-03-05T04:38:07.274Z,6.3
2024-03-05T04:43:13.455Z,6.7
2024-03-05T04:48:19.528Z,7
2024-03-05T04:53:25.710Z,6.3
2024-03-05T04:58:31.738Z,6.3
2024-03-05T05:03:37.862Z,6.7
2024-03-05T05:08:44.032Z,6.3
2024-03-05T05:13:49.099Z,6.3
2024-03-05T05:18:55.249Z,7
2024-03-05T05:24:01.346Z,6.7
2024-03-05T05:29:07.452Z,6
2024-03-05T05:34:13.609Z,6.3
2024-03-05T05:39:19.730Z,6.3
2024-03-05T05:44:25.774Z,6.3
2024-03-05T05:49:31.890Z,6
2024-03-05T05:54:38.036Z,5.7
2024-03-05T05:59:44.151Z,6.3
2024-03-05T06:04:50.345Z,6.7
2024-03-05T06:09:56.429Z,6
2024-03-05T06:15:02.610Z,6
2024-03-05T06:20:07.603Z,5.7
2024-03-05T06:25:13.733Z,6
2024-03-05T06:30:19.843Z,6.3
2024-03-05T06:35:25.948Z,6
2024-03-05T06:40:32.061Z,6
2024-03-05T06:45:38.192Z,6
2024-03-05T06:50:44.400Z,5.7
2024-03-05T06:55:50.421Z,6
2024-03-05T07:00:56.553Z,7.3
2024-03-05T07:06:02.637Z,6.3
2024-03-05T07:11:08.785Z,6
2024-03-05T07:16:14.875Z,6
2024-03-05T07:21:20.972Z,6.3
2024-03-05T07:26:26.167Z,6.7
2024-03-05T07:31:32.252Z,6.3
2024-03-05T07:36:38.466Z,5.4
2024-03-05T07:41:44.498Z,5.7
2024-03-05T07:46:50.583Z,6
2024-03-05T07:51:56.693Z,6.3
2024-03-05T07:57:02.830Z,6.7
2024-03-05T08:02:09.228Z,5.7
2024-03-05T08:07:15.034Z,6.3
2024-03-05T08:12:21.145Z,5.7
2024-03-05T08:17:27.277Z,6
2024-03-05T08:22:33.472Z,6
2024-03-05T08:27:39.492Z,6
2024-03-05T08:32:44.680Z,6
2024-03-05T08:37:50.727Z,6.3
2024-03-05T08:42:56.973Z,6
2024-03-05T08:48:03.027Z,5.7
2024-03-05T08:53:09.084Z,6
2024-03-05T08:58:15.217Z,6.3
2024-03-05T09:03:21.321Z,5.7
2024-03-05T09:08:27.437Z,6
2024-03-05T09:13:33.546Z,5.7
2024-03-05T09:18:39.683Z,6
2024-03-05T09:23:45.787Z,6.3
2024-03-05T09:28:51.905Z,6
2024-03-05T09:33:58.015Z,6
2024-03-05T09:39:03.156Z,5.4
2024-03-05T09:44:09.270Z,6.7
2024-03-05T09:49:15.377Z,6.3
2024-03-05T09:54:21.506Z,6.3
2024-03-05T09:59:27.798Z,6
2024-03-05T10:04:33.722Z,6.7
2024-03-05T10:09:39.842Z,6
2024-03-05T10:14:45.958Z,6.3
2024-03-05T10:19:52.087Z,6
2024-03-05T10:24:58.189Z,6.7
2024-03-05T10:30:04.318Z,6
2024-03-05T10:35:10.429Z,6.3
2024-03-05T10:40:16.555Z,6
2024-03-05T10:45:21.695Z,5.7
2024-03-05T10:50:27.800Z,6.3
2024-03-05T10:55:33.920Z,6.3
2024-03-05T11:00:40.040Z,6
2024-03-05T11:05:46.160Z,6
2024-03-05T11:10:52.277Z,6.3
2024-03-05T11:15:58.602Z,6.3
2024-03-05T11:21:04.616Z,6.3
2024-03-05T11:26:10.903Z,6.3
2024-03-05T11:31:16.768Z,7.3
2024-03-05T11:36:22.887Z,7.3
2024-03-05T11:41:28.982Z,6.7
2024-03-05T11:46:35.065Z,6.3
2024-03-05T11:51:40.193Z,6.7
2024-03-05T11:56:46.356Z,6.7
2024-03-05T12:01:52.446Z,7
2024-03-05T12:06:58.514Z,7.3
2024-03-05T12:12:04.622Z,6.7
2024-03-05T12:17:10.742Z,7
2024-03-05T12:22:16.841Z,6.7
2024-03-05T12:27:22.964Z,7.6
2024-03-05T12:32:29.136Z,6.7
2024-03-05T12:37:35.277Z,7
2024-03-05T12:42:41.455Z,7.3
2024-03-05T12:47:47.549Z,6.7
2024-03-05T12:52:53.719Z,6.7
2024-03-05T12:57:58.643Z,7.3
2024-03-05T13:03:04.800Z,7.3
2024-03-05T13:08:10.893Z,7
2024-03-05T13:13:16.961Z,7
2024-03-05T13:18:23.075Z,7.6
2024-03-05T13:23:29.202Z,7.3
2024-03-05T13:28:35.293Z,7.3
2024-03-05T13:33:41.411Z,7
2024-03-05T13:38:47.519Z,7.3
2024-03-05T13:43:53.631Z,7
2024-03-05T13:48:59.725Z,7.6
2024-03-05T13:54:05.841Z,7.3
2024-03-05T13:59:11.984Z,7
2024-03-05T14:04:17.115Z,7
2024-03-05T14:09:23.240Z,7.6
2024-03-05T14:14:29.307Z,7.6
2024-03-05T14:19:35.450Z,7.3
2024-03-05T14:24:41.517Z,8
2024-03-05T14:29:47.646Z,7
2024-03-05T14:34:53.746Z,8.3
2024-03-05T14:39:59.840Z,7.3
2024-03-05T14:45:06.139Z,8
2024-03-05T14:50:12.090Z,7
2024-03-05T14:55:18.194Z,7.6
2024-03-05T15:00:24.317Z,7.6
2024-03-05T15:05:30.483Z,7.3
2024-03-05T15:10:35.698Z,8
2024-03-05T15:15:41.697Z,7
2024-03-05T15:20:47.854Z,7.6
2024-03-05T15:25:53.888Z,7.3
2024-03-05T15:31:00.075Z,8.3
2024-03-05T15:36:06.106Z,8.3
2024-03-05T15:41:12.205Z,7.3
2024-03-05T15:46:18.327Z,7.6
2024-03-05T15:51:24.480Z,7.3
2024-03-05T15:56:30.548Z,7.6
2024-03-05T16:01:36.668Z,7.6
2024-03-05T16:06:43.163Z,7.3
2024-03-05T16:11:49.057Z,7.3
2024-03-05T16:16:54.023Z,7.6
2024-03-05T16:22:00.180Z,8
2024-03-05T16:27:06.282Z,7.6
2024-03-05T16:32:12.381Z,8
2024-03-05T16:37:18.601Z,7.3
2024-03-05T16:42:24.610Z,7.6
2024-03-05T16:47:30.756Z,7.3
2024-03-05T16:52:36.840Z,7.6
2024-03-05T16:57:42.966Z,7
2024-03-05T17:02:49.108Z,8
2024-03-05T17:07:55.184Z,6.7
2024-03-05T17:13:01.299Z,7.6
2024-03-05T17:18:07.508Z,7.6
2024-03-05T17:23:12.542Z,7.6
2024-03-05T17:28:18.670Z,6.3
2024-03-05T17:33:25.084Z,7.3
2024-03-05T17:38:31.172Z,7
2024-03-05T17:43:37.125Z,6.7
2024-03-05T17:48:43.317Z,7
2024-03-05T17:53:49.291Z,7
2024-03-05T17:58:55.339Z,7.3
2024-03-05T18:04:01.541Z,7
2024-03-05T18:09:07.707Z,7.6
2024-03-05T18:14:13.763Z,7.3
2024-03-05T18:19:19.870Z,6.7
2024-03-05T18:24:26.063Z,6.7
2024-03-05T18:29:31.060Z,7
2024-03-05T18:34:37.173Z,7.3
2024-03-05T18:39:43.435Z,7.6
2024-03-05T18:44:49.382Z,7
2024-03-05T18:49:55.504Z,7
2024-03-05T18:55:01.628Z,6.3
2024-03-05T19:00:07.723Z,6.7
2024-03-05T19:05:13.852Z,6.7
2024-03-05T19:10:19.963Z,6.3
2024-03-05T19:15:26.172Z,6.7
2024-03-05T19:20:32.192Z,6.3
2024-03-05T19:25:38.423Z,7.3
2024-03-05T19:30:44.433Z,6.3
2024-03-05T19:35:49.563Z,7
2024-03-05T19:40:55.684Z,6
2024-03-05T19:46:01.805Z,6.3
2024-03-05T19:51:07.903Z,6.7
2024-03-05T19:56:14.005Z,6
2024-03-05T20:01:20.132Z,5.7
2024-03-05T20:06:26.237Z,6
2024-03-05T20:11:32.354Z,6
2024-03-05T20:16:38.670Z,6.3
2024-03-05T20:21:44.859Z,6.7
2024-03-05T20:26:50.875Z,6
2024-03-05T20:31:57.096Z,6
2024-03-05T20:37:03.089Z,6.3
2024-03-05T20:42:08.066Z,5.4
2024-03-05T20:47:14.180Z,6
2024-03-05T20:52:20.294Z,6.3
2024-03-05T20:57:26.606Z,6.3
2024-03-05T21:02:32.515Z,5.4
2024-03-05T21:07:38.673Z,6
2024-03-05T21:12:44.097Z,6.7
2024-03-05T21:17:50.019Z,6.3
2024-03-05T21:22:56.070Z,5.7
2024-03-05T21:28:02.193Z,5.4
2024-03-05T21:33:08.238Z,5.7
2024-03-05T21:38:14.419Z,5.7
2024-03-05T21:43:20.679Z,5.7
2024-03-05T21:48:26.687Z,5.4
2024-03-05T21:53:32.839Z,6.3
2024-03-05T21:58:38.816Z,5.1
2024-03-05T22:03:44.923Z,5.4
2024-03-05T22:13:57.470Z,5.1
2024-03-05T22:19:02.610Z,5.4
2024-03-05T22:24:08.572Z,6
2024-03-05T22:29:14.803Z,5.4
2024-03-05T22:34:20.750Z,6.3
2024-03-05T22:39:26.775Z,5.7
2024-03-05T22:44:33.105Z,6.3
2024-03-05T22:49:39.254Z,6
2024-03-05T22:54:45.169Z,5.7
2024-03-05T22:59:51.473Z,5.4
2024-03-05T23:04:57.475Z,5.7
2024-03-05T23:10:03.692Z,4.7
2024-03-05T23:15:09.638Z,6.3
2024-03-05T23:20:15.860Z,5.4
2024-03-05T23:25:20.893Z,5.4
2024-03-05T23:30:26.912Z,5.1
2024-03-05T23:35:33.146Z,5.4
2024-03-05T23:40:39.200Z,4.7
2024-03-05T23:45:45.299Z,6
2024-03-05T23:50:51.383Z,5.1
2024-03-05T23:55:57.487Z,5.7
